sensor_id;sensor_type;location;lat;lon;timestamp;temperature;humidity
62589;DHT22;58504;48.770;9.148;2023-03-16T00:01:02;19.90;51.90
62589;DHT22;58504;48.770;9.148;2023-03-16T00:03:30;19.90;52.00
62589;DHT22;58504;48.770;9.148;2023-03-16T00:05:57;19.90;52.00
62589;DHT22;58504;48.770;9.148;2023-03-16T00:08:24;19.80;51.90
62589;DHT22;58504;48.770;9.148;2023-03-16T00:10:51;19.90;52.00
62589;DHT22;58504;48.770;9.148;2023-03-16T00:13:20;19.80;51.90
62589;DHT22;58504;48.770;9.148;2023-03-16T00:15:51;19.80;52.00
62589;DHT22;58504;48.770;9.148;2023-03-16T00:18:19;19.80;52.00
62589;DHT22;58504;48.770;9.148;2023-03-16T00:20:50;19.80;52.00
62589;DHT22;58504;48.770;9.148;2023-03-16T00:23:19;19.70;52.00
62589;DHT22;58504;48.770;9.148;2023-03-16T00:25:52;19.70;52.00
62589;DHT22;58504;48.770;9.148;2023-03-16T00:28:20;19.70;52.00
62589;DHT22;58504;48.770;9.148;2023-03-16T00:30:46;19.70;52.00
62589;DHT22;58504;48.770;9.148;2023-03-16T00:33:13;19.70;52.00
62589;DHT22;58504;48.770;9.148;2023-03-16T00:35:40;19.70;52.00
62589;DHT22;58504;48.770;9.148;2023-03-16T00:38:16;19.70;51.90
62589;DHT22;58504;48.770;9.148;2023-03-16T00:40:43;19.70;51.90
62589;DHT22;58504;48.770;9.148;2023-03-16T00:43:10;19.60;51.90
62589;DHT22;58504;48.770;9.148;2023-03-16T00:45:37;19.60;51.80
62589;DHT22;58504;48.770;9.148;2023-03-16T00:48:04;19.60;51.80
62589;DHT22;58504;48.770;9.148;2023-03-16T00:50:30;19.60;51.80
62589;DHT22;58504;48.770;9.148;2023-03-16T00:52:57;19.60;51.80
62589;DHT22;58504;48.770;9.148;2023-03-16T00:55:25;19.60;51.80
62589;DHT22;58504;48.770;9.148;2023-03-16T00:57:53;19.60;51.80
62589;DHT22;58504;48.770;9.148;2023-03-16T01:00:20;19.50;51.70
62589;DHT22;58504;48.770;9.148;2023-03-16T01:02:48;19.50;51.70
62589;DHT22;58504;48.770;9.148;2023-03-16T01:05:15;19.50;51.70
62589;DHT22;58504;48.770;9.148;2023-03-16T01:07:42;19.50;51.70
62589;DHT22;58504;48.770;9.148;2023-03-16T01:10:10;19.50;51.70
62589;DHT22;58504;48.770;9.148;2023-03-16T01:12:38;19.50;51.70
62589;DHT22;58504;48.770;9.148;2023-03-16T01:15:06;19.50;51.80
62589;DHT22;58504;48.770;9.148;2023-03-16T01:17:33;19.50;51.80
62589;DHT22;58504;48.770;9.148;2023-03-16T01:20:00;19.40;51.70
62589;DHT22;58504;48.770;9.148;2023-03-16T01:22:27;19.40;51.70
62589;DHT22;58504;48.770;9.148;2023-03-16T01:24:54;19.40;51.70
62589;DHT22;58504;48.770;9.148;2023-03-16T01:27:20;19.40;51.70
62589;DHT22;58504;48.770;9.148;2023-03-16T01:29:51;19.40;51.70
62589;DHT22;58504;48.770;9.148;2023-03-16T01:32:18;19.40;51.70
62589;DHT22;58504;48.770;9.148;2023-03-16T01:34:45;19.40;51.80
62589;DHT22;58504;48.770;9.148;2023-03-16T01:37:12;19.30;51.70
62589;DHT22;58504;48.770;9.148;2023-03-16T01:39:38;19.30;51.70
62589;DHT22;58504;48.770;9.148;2023-03-16T01:42:05;19.30;51.70
62589;DHT22;58504;48.770;9.148;2023-03-16T01:44:52;19.30;51.70
62589;DHT22;58504;48.770;9.148;2023-03-16T01:47:20;19.30;51.70
62589;DHT22;58504;48.770;9.148;2023-03-16T01:49:49;19.30;51.70
62589;DHT22;58504;48.770;9.148;2023-03-16T01:52:22;19.30;51.80
62589;DHT22;58504;48.770;9.148;2023-03-16T01:54:53;19.30;51.70
62589;DHT22;58504;48.770;9.148;2023-03-16T01:57:22;19.20;51.70
62589;DHT22;58504;48.770;9.148;2023-03-16T01:59:54;19.20;51.70
62589;DHT22;58504;48.770;9.148;2023-03-16T02:02:24;19.20;51.70
62589;DHT22;58504;48.770;9.148;2023-03-16T02:04:57;19.20;51.70
62589;DHT22;58504;48.770;9.148;2023-03-16T02:07:27;19.20;51.80
62589;DHT22;58504;48.770;9.148;2023-03-16T02:09:57;19.20;51.70
62589;DHT22;58504;48.770;9.148;2023-03-16T02:12:27;19.20;51.80
62589;DHT22;58504;48.770;9.148;2023-03-16T02:14:55;19.20;51.80
62589;DHT22;58504;48.770;9.148;2023-03-16T02:17:25;19.10;51.70
62589;DHT22;58504;48.770;9.148;2023-03-16T02:19:59;19.10;51.70
62589;DHT22;58504;48.770;9.148;2023-03-16T02:22:31;19.10;51.70
62589;DHT22;58504;48.770;9.148;2023-03-16T02:25:01;19.10;51.70
62589;DHT22;58504;48.770;9.148;2023-03-16T02:27:33;19.10;51.80
62589;DHT22;58504;48.770;9.148;2023-03-16T02:30:09;19.10;52.30
62589;DHT22;58504;48.770;9.148;2023-03-16T02:32:38;19.10;51.80
62589;DHT22;58504;48.770;9.148;2023-03-16T02:35:07;19.10;51.80
62589;DHT22;58504;48.770;9.148;2023-03-16T02:37:34;19.10;51.80
62589;DHT22;58504;48.770;9.148;2023-03-16T02:40:12;19.10;51.80
62589;DHT22;58504;48.770;9.148;2023-03-16T02:42:42;19.00;51.70
62589;DHT22;58504;48.770;9.148;2023-03-16T02:45:10;19.00;51.70
62589;DHT22;58504;48.770;9.148;2023-03-16T02:47:40;19.00;51.80
62589;DHT22;58504;48.770;9.148;2023-03-16T02:50:09;19.00;51.80
62589;DHT22;58504;48.770;9.148;2023-03-16T02:52:37;19.00;51.70
62589;DHT22;58504;48.770;9.148;2023-03-16T02:55:07;19.00;51.70
62589;DHT22;58504;48.770;9.148;2023-03-16T02:57:34;19.00;51.80
62589;DHT22;58504;48.770;9.148;2023-03-16T03:00:00;19.00;51.80
62589;DHT22;58504;48.770;9.148;2023-03-16T03:02:32;18.90;51.70
62589;DHT22;58504;48.770;9.148;2023-03-16T03:04:58;18.90;51.70
62589;DHT22;58504;48.770;9.148;2023-03-16T03:07:26;18.90;51.70
62589;DHT22;58504;48.770;9.148;2023-03-16T03:09:56;18.90;51.70
62589;DHT22;58504;48.770;9.148;2023-03-16T03:12:23;18.90;51.70
62589;DHT22;58504;48.770;9.148;2023-03-16T03:14:49;19.00;51.80
62589;DHT22;58504;48.770;9.148;2023-03-16T03:17:16;18.90;51.80
62589;DHT22;58504;48.770;9.148;2023-03-16T03:19:44;18.90;51.80
62589;DHT22;58504;48.770;9.148;2023-03-16T03:22:11;18.90;51.80
62589;DHT22;58504;48.770;9.148;2023-03-16T03:24:43;18.90;51.80
62589;DHT22;58504;48.770;9.148;2023-03-16T03:27:10;18.80;51.70
62589;DHT22;58504;48.770;9.148;2023-03-16T03:29:37;18.80;51.70
62589;DHT22;58504;48.770;9.148;2023-03-16T03:32:04;18.80;51.70
62589;DHT22;58504;48.770;9.148;2023-03-16T03:34:31;18.80;51.70
62589;DHT22;58504;48.770;9.148;2023-03-16T03:36:59;18.80;51.70
62589;DHT22;58504;48.770;9.148;2023-03-16T03:39:26;18.80;51.70
62589;DHT22;58504;48.770;9.148;2023-03-16T03:41:53;18.80;51.70
62589;DHT22;58504;48.770;9.148;2023-03-16T03:44:20;18.80;51.80
62589;DHT22;58504;48.770;9.148;2023-03-16T03:46:47;18.70;51.70
62589;DHT22;58504;48.770;9.148;2023-03-16T03:49:14;18.70;51.70
62589;DHT22;58504;48.770;9.148;2023-03-16T03:51:41;18.70;51.80
62589;DHT22;58504;48.770;9.148;2023-03-16T03:54:09;18.70;51.70
62589;DHT22;58504;48.770;9.148;2023-03-16T03:56:36;18.70;51.80
62589;DHT22;58504;48.770;9.148;2023-03-16T03:59:03;18.70;51.80
62589;DHT22;58504;48.770;9.148;2023-03-16T04:01:30;18.70;51.70
62589;DHT22;58504;48.770;9.148;2023-03-16T04:03:56;18.70;51.70
62589;DHT22;58504;48.770;9.148;2023-03-16T04:06:23;18.70;51.70
62589;DHT22;58504;48.770;9.148;2023-03-16T04:08:50;18.70;51.80
62589;DHT22;58504;48.770;9.148;2023-03-16T04:11:20;18.70;51.80
62589;DHT22;58504;48.770;9.148;2023-03-16T04:13:46;18.70;51.80
62589;DHT22;58504;48.770;9.148;2023-03-16T04:16:13;18.60;51.80
62589;DHT22;58504;48.770;9.148;2023-03-16T04:18:40;18.60;51.70
62589;DHT22;58504;48.770;9.148;2023-03-16T04:21:12;18.60;51.70
62589;DHT22;58504;48.770;9.148;2023-03-16T04:23:40;18.60;51.70
62589;DHT22;58504;48.770;9.148;2023-03-16T04:26:07;18.60;51.70
62589;DHT22;58504;48.770;9.148;2023-03-16T04:28:35;18.60;52.30
62589;DHT22;58504;48.770;9.148;2023-03-16T04:31:02;18.60;51.80
62589;DHT22;58504;48.770;9.148;2023-03-16T04:33:30;18.70;51.70
62589;DHT22;58504;48.770;9.148;2023-03-16T04:35:57;18.90;51.60
62589;DHT22;58504;48.770;9.148;2023-03-16T04:38:24;19.20;51.00
62589;DHT22;58504;48.770;9.148;2023-03-16T04:40:51;19.60;50.10
62589;DHT22;58504;48.770;9.148;2023-03-16T04:43:18;20.10;49.30
62589;DHT22;58504;48.770;9.148;2023-03-16T04:45:46;20.40;48.40
62589;DHT22;58504;48.770;9.148;2023-03-16T04:48:13;20.60;47.60
62589;DHT22;58504;48.770;9.148;2023-03-16T04:50:39;20.90;47.20
62589;DHT22;58504;48.770;9.148;2023-03-16T04:53:06;21.00;46.70
62589;DHT22;58504;48.770;9.148;2023-03-16T04:55:33;21.10;46.50
62589;DHT22;58504;48.770;9.148;2023-03-16T04:58:00;21.30;46.40
62589;DHT22;58504;48.770;9.148;2023-03-16T05:00:27;21.30;46.00
62589;DHT22;58504;48.770;9.148;2023-03-16T05:02:55;21.50;45.70
62589;DHT22;58504;48.770;9.148;2023-03-16T05:05:22;21.70;45.40
62589;DHT22;58504;48.770;9.148;2023-03-16T05:07:49;21.80;45.10
62589;DHT22;58504;48.770;9.148;2023-03-16T05:10:17;22.00;44.70
62589;DHT22;58504;48.770;9.148;2023-03-16T05:12:44;22.10;44.60
62589;DHT22;58504;48.770;9.148;2023-03-16T05:15:11;22.10;44.50
62589;DHT22;58504;48.770;9.148;2023-03-16T05:17:38;22.20;44.40
62589;DHT22;58504;48.770;9.148;2023-03-16T05:20:09;22.20;44.30
62589;DHT22;58504;48.770;9.148;2023-03-16T05:22:39;22.30;44.20
62589;DHT22;58504;48.770;9.148;2023-03-16T05:25:06;22.30;44.10
62589;DHT22;58504;48.770;9.148;2023-03-16T05:27:33;22.40;44.00
62589;DHT22;58504;48.770;9.148;2023-03-16T05:30:01;22.40;43.80
62589;DHT22;58504;48.770;9.148;2023-03-16T05:32:28;22.50;43.70
62589;DHT22;58504;48.770;9.148;2023-03-16T05:34:55;22.50;43.60
62589;DHT22;58504;48.770;9.148;2023-03-16T05:37:24;22.50;43.60
62589;DHT22;58504;48.770;9.148;2023-03-16T05:39:51;22.60;43.50
62589;DHT22;58504;48.770;9.148;2023-03-16T05:42:17;22.60;43.50
62589;DHT22;58504;48.770;9.148;2023-03-16T05:44:44;22.70;43.50
62589;DHT22;58504;48.770;9.148;2023-03-16T05:47:11;22.70;43.50
62589;DHT22;58504;48.770;9.148;2023-03-16T05:49:38;22.70;43.40
62589;DHT22;58504;48.770;9.148;2023-03-16T05:52:05;22.70;43.20
62589;DHT22;58504;48.770;9.148;2023-03-16T05:54:33;22.70;43.30
62589;DHT22;58504;48.770;9.148;2023-03-16T05:57:00;22.80;43.20
62589;DHT22;58504;48.770;9.148;2023-03-16T05:59:27;22.90;43.30
62589;DHT22;58504;48.770;9.148;2023-03-16T06:01:53;22.90;43.20
62589;DHT22;58504;48.770;9.148;2023-03-16T06:04:20;22.90;43.10
62589;DHT22;58504;48.770;9.148;2023-03-16T06:06:47;23.00;43.10
62589;DHT22;58504;48.770;9.148;2023-03-16T06:09:13;23.00;43.00
62589;DHT22;58504;48.770;9.148;2023-03-16T06:11:42;23.00;42.90
62589;DHT22;58504;48.770;9.148;2023-03-16T06:14:08;23.00;42.90
62589;DHT22;58504;48.770;9.148;2023-03-16T06:16:35;23.10;42.90
62589;DHT22;58504;48.770;9.148;2023-03-16T06:19:02;23.10;42.80
62589;DHT22;58504;48.770;9.148;2023-03-16T06:21:29;23.10;42.80
62589;DHT22;58504;48.770;9.148;2023-03-16T06:23:55;23.10;42.70
62589;DHT22;58504;48.770;9.148;2023-03-16T06:26:22;23.10;42.70
62589;DHT22;58504;48.770;9.148;2023-03-16T06:28:50;23.20;42.70
62589;DHT22;58504;48.770;9.148;2023-03-16T06:31:17;23.20;42.70
62589;DHT22;58504;48.770;9.148;2023-03-16T06:33:44;23.20;42.50
62589;DHT22;58504;48.770;9.148;2023-03-16T06:36:11;23.20;42.50
62589;DHT22;58504;48.770;9.148;2023-03-16T06:38:37;23.30;42.40
62589;DHT22;58504;48.770;9.148;2023-03-16T06:41:04;23.30;42.30
62589;DHT22;58504;48.770;9.148;2023-03-16T06:43:31;23.30;42.30
62589;DHT22;58504;48.770;9.148;2023-03-16T06:45:59;23.30;42.20
62589;DHT22;58504;48.770;9.148;2023-03-16T06:48:27;23.30;42.00
62589;DHT22;58504;48.770;9.148;2023-03-16T06:50:54;23.40;42.20
62589;DHT22;58504;48.770;9.148;2023-03-16T06:53:21;23.40;42.10
62589;DHT22;58504;48.770;9.148;2023-03-16T06:55:48;23.40;42.00
62589;DHT22;58504;48.770;9.148;2023-03-16T06:58:15;23.50;41.90
62589;DHT22;58504;48.770;9.148;2023-03-16T07:00:42;23.50;41.90
62589;DHT22;58504;48.770;9.148;2023-03-16T07:03:10;23.40;41.80
62589;DHT22;58504;48.770;9.148;2023-03-16T07:05:37;23.50;41.90
62589;DHT22;58504;48.770;9.148;2023-03-16T07:08:04;23.50;41.90
62589;DHT22;58504;48.770;9.148;2023-03-16T07:10:31;23.40;42.00
62589;DHT22;58504;48.770;9.148;2023-03-16T07:12:58;23.50;42.20
62589;DHT22;58504;48.770;9.148;2023-03-16T07:15:25;23.50;42.20
62589;DHT22;58504;48.770;9.148;2023-03-16T07:17:52;23.40;43.30
62589;DHT22;58504;48.770;9.148;2023-03-16T07:20:20;23.40;44.20
62589;DHT22;58504;48.770;9.148;2023-03-16T07:22:47;23.40;44.70
62589;DHT22;58504;48.770;9.148;2023-03-16T07:25:13;23.40;45.70
62589;DHT22;58504;48.770;9.148;2023-03-16T07:27:40;23.40;45.60
62589;DHT22;58504;48.770;9.148;2023-03-16T07:30:09;23.40;45.80
62589;DHT22;58504;48.770;9.148;2023-03-16T07:32:39;23.40;45.90
62589;DHT22;58504;48.770;9.148;2023-03-16T07:35:06;23.40;45.40
62589;DHT22;58504;48.770;9.148;2023-03-16T07:37:34;23.50;45.30
62589;DHT22;58504;48.770;9.148;2023-03-16T07:40:02;23.50;44.70
62589;DHT22;58504;48.770;9.148;2023-03-16T07:42:29;23.60;44.40
62589;DHT22;58504;48.770;9.148;2023-03-16T07:44:56;23.60;43.70
62589;DHT22;58504;48.770;9.148;2023-03-16T07:47:23;23.70;43.50
62589;DHT22;58504;48.770;9.148;2023-03-16T07:49:50;23.70;43.50
62589;DHT22;58504;48.770;9.148;2023-03-16T07:52:17;23.80;43.50
62589;DHT22;58504;48.770;9.148;2023-03-16T07:54:45;23.80;43.50
62589;DHT22;58504;48.770;9.148;2023-03-16T07:57:13;23.80;43.50
62589;DHT22;58504;48.770;9.148;2023-03-16T07:59:40;23.90;43.40
62589;DHT22;58504;48.770;9.148;2023-03-16T08:02:11;23.90;43.20
62589;DHT22;58504;48.770;9.148;2023-03-16T08:04:38;24.00;43.20
62589;DHT22;58504;48.770;9.148;2023-03-16T08:07:07;24.00;43.10
62589;DHT22;58504;48.770;9.148;2023-03-16T08:09:33;24.00;43.10
62589;DHT22;58504;48.770;9.148;2023-03-16T08:12:02;24.00;43.10
62589;DHT22;58504;48.770;9.148;2023-03-16T08:14:29;24.10;43.00
62589;DHT22;58504;48.770;9.148;2023-03-16T08:16:58;24.10;43.00
62589;DHT22;58504;48.770;9.148;2023-03-16T08:19:25;24.20;43.00
62589;DHT22;58504;48.770;9.148;2023-03-16T08:21:52;24.20;42.60
62589;DHT22;58504;48.770;9.148;2023-03-16T08:24:19;24.30;42.80
62589;DHT22;58504;48.770;9.148;2023-03-16T08:26:46;24.30;42.60
62589;DHT22;58504;48.770;9.148;2023-03-16T08:29:14;24.40;42.50
62589;DHT22;58504;48.770;9.148;2023-03-16T08:31:41;24.40;42.80
62589;DHT22;58504;48.770;9.148;2023-03-16T08:34:08;24.40;42.80
62589;DHT22;58504;48.770;9.148;2023-03-16T08:36:35;24.30;42.80
62589;DHT22;58504;48.770;9.148;2023-03-16T08:39:03;24.30;43.00
62589;DHT22;58504;48.770;9.148;2023-03-16T08:41:30;24.20;43.10
62589;DHT22;58504;48.770;9.148;2023-03-16T08:43:57;24.10;43.30
62589;DHT22;58504;48.770;9.148;2023-03-16T08:46:25;24.20;43.20
62589;DHT22;58504;48.770;9.148;2023-03-16T08:48:52;24.30;43.00
62589;DHT22;58504;48.770;9.148;2023-03-16T08:51:20;24.50;42.90
62589;DHT22;58504;48.770;9.148;2023-03-16T08:53:47;24.70;42.60
62589;DHT22;58504;48.770;9.148;2023-03-16T08:56:13;24.80;42.40
62589;DHT22;58504;48.770;9.148;2023-03-16T08:58:41;24.90;42.30
62589;DHT22;58504;48.770;9.148;2023-03-16T09:01:11;24.90;42.30
62589;DHT22;58504;48.770;9.148;2023-03-16T09:03:40;24.80;42.30
62589;DHT22;58504;48.770;9.148;2023-03-16T09:06:09;24.70;42.60
62589;DHT22;58504;48.770;9.148;2023-03-16T09:08:36;24.70;42.60
62589;DHT22;58504;48.770;9.148;2023-03-16T09:11:06;24.60;42.70
62589;DHT22;58504;48.770;9.148;2023-03-16T09:13:34;24.50;42.90
62589;DHT22;58504;48.770;9.148;2023-03-16T09:16:01;24.50;43.10
62589;DHT22;58504;48.770;9.148;2023-03-16T09:18:28;24.30;43.00
62589;DHT22;58504;48.770;9.148;2023-03-16T09:20:58;24.30;43.30
62589;DHT22;58504;48.770;9.148;2023-03-16T09:23:26;24.20;43.40
62589;DHT22;58504;48.770;9.148;2023-03-16T09:25:56;24.30;43.40
62589;DHT22;58504;48.770;9.148;2023-03-16T09:28:23;24.50;43.20
62589;DHT22;58504;48.770;9.148;2023-03-16T09:30:51;24.70;42.90
62589;DHT22;58504;48.770;9.148;2023-03-16T09:33:19;24.90;42.60
62589;DHT22;58504;48.770;9.148;2023-03-16T09:35:46;25.20;42.30
62589;DHT22;58504;48.770;9.148;2023-03-16T09:38:15;25.10;41.90
62589;DHT22;58504;48.770;9.148;2023-03-16T09:40:42;25.10;41.70
62589;DHT22;58504;48.770;9.148;2023-03-16T09:43:30;25.10;41.70
62589;DHT22;58504;48.770;9.148;2023-03-16T09:46:07;25.00;42.00
62589;DHT22;58504;48.770;9.148;2023-03-16T09:48:36;24.90;42.30
62589;DHT22;58504;48.770;9.148;2023-03-16T09:51:06;25.00;42.60
62589;DHT22;58504;48.770;9.148;2023-03-16T09:53:36;24.80;42.50
62589;DHT22;58504;48.770;9.148;2023-03-16T09:56:05;24.80;42.50
62589;DHT22;58504;48.770;9.148;2023-03-16T09:58:34;24.90;42.70
62589;DHT22;58504;48.770;9.148;2023-03-16T10:01:08;24.90;42.60
62589;DHT22;58504;48.770;9.148;2023-03-16T10:04:01;24.90;42.70
62589;DHT22;58504;48.770;9.148;2023-03-16T10:06:45;24.80;42.60
62589;DHT22;58504;48.770;9.148;2023-03-16T10:09:27;24.80;42.80
62589;DHT22;58504;48.770;9.148;2023-03-16T10:11:58;24.80;42.90
62589;DHT22;58504;48.770;9.148;2023-03-16T10:14:31;24.80;43.10
62589;DHT22;58504;48.770;9.148;2023-03-16T10:17:02;24.70;43.10
62589;DHT22;58504;48.770;9.148;2023-03-16T10:19:35;24.70;43.20
62589;DHT22;58504;48.770;9.148;2023-03-16T10:22:13;24.70;43.00
62589;DHT22;58504;48.770;9.148;2023-03-16T10:24:51;24.70;43.10
62589;DHT22;58504;48.770;9.148;2023-03-16T10:27:25;24.60;42.80
62589;DHT22;58504;48.770;9.148;2023-03-16T10:29:54;24.60;43.10
62589;DHT22;58504;48.770;9.148;2023-03-16T10:32:21;24.50;43.10
62589;DHT22;58504;48.770;9.148;2023-03-16T10:34:56;24.50;43.20
62589;DHT22;58504;48.770;9.148;2023-03-16T10:37:25;24.40;43.20
62589;DHT22;58504;48.770;9.148;2023-03-16T10:39:56;24.50;43.40
62589;DHT22;58504;48.770;9.148;2023-03-16T10:42:25;24.70;43.10
62589;DHT22;58504;48.770;9.148;2023-03-16T10:44:56;25.00;42.60
62589;DHT22;58504;48.770;9.148;2023-03-16T10:47:27;25.30;42.10
62589;DHT22;58504;48.770;9.148;2023-03-16T10:49:55;25.50;41.50
62589;DHT22;58504;48.770;9.148;2023-03-16T10:52:28;25.70;40.90
62589;DHT22;58504;48.770;9.148;2023-03-16T10:55:06;25.70;40.90
62589;DHT22;58504;48.770;9.148;2023-03-16T10:57:36;25.80;40.90
62589;DHT22;58504;48.770;9.148;2023-03-16T11:00:11;25.80;40.90
62589;DHT22;58504;48.770;9.148;2023-03-16T11:02:39;25.60;41.00
62589;DHT22;58504;48.770;9.148;2023-03-16T11:05:14;25.60;41.30
62589;DHT22;58504;48.770;9.148;2023-03-16T11:07:47;25.50;41.40
62589;DHT22;58504;48.770;9.148;2023-03-16T11:10:27;25.30;42.30
62589;DHT22;58504;48.770;9.148;2023-03-16T11:12:59;25.20;41.90
62589;DHT22;58504;48.770;9.148;2023-03-16T11:15:27;25.10;42.20
62589;DHT22;58504;48.770;9.148;2023-03-16T11:17:59;25.00;42.40
62589;DHT22;58504;48.770;9.148;2023-03-16T11:20:27;24.90;41.90
62589;DHT22;58504;48.770;9.148;2023-03-16T11:22:57;24.70;42.10
62589;DHT22;58504;48.770;9.148;2023-03-16T11:25:30;24.70;43.00
62589;DHT22;58504;48.770;9.148;2023-03-16T11:28:05;24.50;43.00
62589;DHT22;58504;48.770;9.148;2023-03-16T11:30:40;24.40;43.20
62589;DHT22;58504;48.770;9.148;2023-03-16T11:33:09;24.40;43.40
62589;DHT22;58504;48.770;9.148;2023-03-16T11:35:50;24.30;43.60
62589;DHT22;58504;48.770;9.148;2023-03-16T11:38:20;24.20;43.60
62589;DHT22;58504;48.770;9.148;2023-03-16T11:40:56;24.20;43.70
62589;DHT22;58504;48.770;9.148;2023-03-16T11:43:35;24.10;44.00
62589;DHT22;58504;48.770;9.148;2023-03-16T11:46:10;24.10;44.70
62589;DHT22;58504;48.770;9.148;2023-03-16T11:48:43;24.00;44.80
62589;DHT22;58504;48.770;9.148;2023-03-16T11:51:14;24.00;45.10
62589;DHT22;58504;48.770;9.148;2023-03-16T11:53:48;23.90;45.10
62589;DHT22;58504;48.770;9.148;2023-03-16T11:56:20;23.90;45.30
62589;DHT22;58504;48.770;9.148;2023-03-16T11:59:00;23.80;45.30
62589;DHT22;58504;48.770;9.148;2023-03-16T12:01:39;23.80;45.40
62589;DHT22;58504;48.770;9.148;2023-03-16T12:04:21;23.80;45.50
62589;DHT22;58504;48.770;9.148;2023-03-16T12:07:00;23.80;45.20
62589;DHT22;58504;48.770;9.148;2023-03-16T12:09:49;23.80;46.00
62589;DHT22;58504;48.770;9.148;2023-03-16T12:12:28;23.70;45.50
62589;DHT22;58504;48.770;9.148;2023-03-16T12:15:07;23.70;45.70
62589;DHT22;58504;48.770;9.148;2023-03-16T12:17:36;23.70;45.90
62589;DHT22;58504;48.770;9.148;2023-03-16T12:20:09;23.70;46.00
62589;DHT22;58504;48.770;9.148;2023-03-16T12:22:42;23.70;46.20
62589;DHT22;58504;48.770;9.148;2023-03-16T12:25:13;23.70;46.20
62589;DHT22;58504;48.770;9.148;2023-03-16T12:27:44;23.60;45.80
62589;DHT22;58504;48.770;9.148;2023-03-16T12:30:27;23.60;45.70
62589;DHT22;58504;48.770;9.148;2023-03-16T12:33:00;23.50;45.80
62589;DHT22;58504;48.770;9.148;2023-03-16T12:35:38;23.50;46.20
62589;DHT22;58504;48.770;9.148;2023-03-16T12:38:31;23.40;46.00
62589;DHT22;58504;48.770;9.148;2023-03-16T12:41:19;23.40;46.20
62589;DHT22;58504;48.770;9.148;2023-03-16T12:44:05;23.40;46.40
62589;DHT22;58504;48.770;9.148;2023-03-16T12:46:41;23.30;46.30
62589;DHT22;58504;48.770;9.148;2023-03-16T12:49:11;23.40;46.20
62589;DHT22;58504;48.770;9.148;2023-03-16T12:51:40;23.40;46.10
62589;DHT22;58504;48.770;9.148;2023-03-16T12:54:18;23.40;45.90
62589;DHT22;58504;48.770;9.148;2023-03-16T12:56:46;23.40;45.90
62589;DHT22;58504;48.770;9.148;2023-03-16T12:59:18;23.40;46.10
62589;DHT22;58504;48.770;9.148;2023-03-16T13:01:48;23.30;45.90
62589;DHT22;58504;48.770;9.148;2023-03-16T13:04:18;22.70;34.40
62589;DHT22;58504;48.770;9.148;2023-03-16T13:06:47;21.60;33.30
62589;DHT22;58504;48.770;9.148;2023-03-16T13:09:18;20.10;31.90
62589;DHT22;58504;48.770;9.148;2023-03-16T13:11:47;19.80;36.30
62589;DHT22;58504;48.770;9.148;2023-03-16T13:14:39;20.10;41.90
62589;DHT22;58504;48.770;9.148;2023-03-16T13:17:26;20.50;45.10
62589;DHT22;58504;48.770;9.148;2023-03-16T13:20:03;20.70;45.80
62589;DHT22;58504;48.770;9.148;2023-03-16T13:22:41;21.00;46.10
62589;DHT22;58504;48.770;9.148;2023-03-16T13:25:15;21.20;46.40
62589;DHT22;58504;48.770;9.148;2023-03-16T13:27:45;21.30;46.70
62589;DHT22;58504;48.770;9.148;2023-03-16T13:30:19;21.50;46.00
62589;DHT22;58504;48.770;9.148;2023-03-16T13:32:47;21.70;46.00
62589;DHT22;58504;48.770;9.148;2023-03-16T13:35:18;22.00;45.70
62589;DHT22;58504;48.770;9.148;2023-03-16T13:37:47;22.50;45.50
62589;DHT22;58504;48.770;9.148;2023-03-16T13:40:17;23.00;44.30
62589;DHT22;58504;48.770;9.148;2023-03-16T13:42:46;23.60;43.30
62589;DHT22;58504;48.770;9.148;2023-03-16T13:45:18;24.10;42.50
62589;DHT22;58504;48.770;9.148;2023-03-16T13:47:47;24.70;41.70
62589;DHT22;58504;48.770;9.148;2023-03-16T13:50:15;25.10;41.00
62589;DHT22;58504;48.770;9.148;2023-03-16T13:52:48;25.30;40.30
62589;DHT22;58504;48.770;9.148;2023-03-16T13:55:17;25.50;39.80
62589;DHT22;58504;48.770;9.148;2023-03-16T13:57:47;25.70;40.00
62589;DHT22;58504;48.770;9.148;2023-03-16T14:00:18;25.90;40.00
62589;DHT22;58504;48.770;9.148;2023-03-16T14:02:49;26.50;39.20
62589;DHT22;58504;48.770;9.148;2023-03-16T14:05:19;27.40;37.80
62589;DHT22;58504;48.770;9.148;2023-03-16T14:07:47;28.20;36.30
62589;DHT22;58504;48.770;9.148;2023-03-16T14:10:15;29.00;35.00
62589;DHT22;58504;48.770;9.148;2023-03-16T14:12:50;29.40;34.00
62589;DHT22;58504;48.770;9.148;2023-03-16T14:15:19;29.80;33.10
62589;DHT22;58504;48.770;9.148;2023-03-16T14:17:46;30.10;32.50
62589;DHT22;58504;48.770;9.148;2023-03-16T14:20:18;30.10;32.40
62589;DHT22;58504;48.770;9.148;2023-03-16T14:22:45;29.90;32.20
62589;DHT22;58504;48.770;9.148;2023-03-16T14:25:18;29.60;32.70
62589;DHT22;58504;48.770;9.148;2023-03-16T14:27:46;29.20;33.40
62589;DHT22;58504;48.770;9.148;2023-03-16T14:30:16;28.90;33.80
62589;DHT22;58504;48.770;9.148;2023-03-16T14:32:57;28.70;34.50
62589;DHT22;58504;48.770;9.148;2023-03-16T14:35:27;28.30;34.80
62589;DHT22;58504;48.770;9.148;2023-03-16T14:37:54;27.90;35.40
62589;DHT22;58504;48.770;9.148;2023-03-16T14:40:24;27.50;36.20
62589;DHT22;58504;48.770;9.148;2023-03-16T14:42:52;26.90;37.10
62589;DHT22;58504;48.770;9.148;2023-03-16T14:45:20;26.30;38.30
62589;DHT22;58504;48.770;9.148;2023-03-16T14:47:49;25.70;39.40
62589;DHT22;58504;48.770;9.148;2023-03-16T14:50:22;25.20;40.30
62589;DHT22;58504;48.770;9.148;2023-03-16T14:52:50;24.90;41.20
62589;DHT22;58504;48.770;9.148;2023-03-16T14:55:18;24.80;41.20
62589;DHT22;58504;48.770;9.148;2023-03-16T14:57:47;24.90;41.10
62589;DHT22;58504;48.770;9.148;2023-03-16T15:00:17;25.10;41.00
62589;DHT22;58504;48.770;9.148;2023-03-16T15:02:49;25.30;40.90
62589;DHT22;58504;48.770;9.148;2023-03-16T15:05:23;25.40;40.90
62589;DHT22;58504;48.770;9.148;2023-03-16T15:07:54;25.40;40.50
62589;DHT22;58504;48.770;9.148;2023-03-16T15:10:23;25.40;40.30
62589;DHT22;58504;48.770;9.148;2023-03-16T15:12:51;25.30;40.80
62589;DHT22;58504;48.770;9.148;2023-03-16T15:15:20;25.20;41.00
62589;DHT22;58504;48.770;9.148;2023-03-16T15:17:49;25.10;41.30
62589;DHT22;58504;48.770;9.148;2023-03-16T15:20:17;24.90;41.60
62589;DHT22;58504;48.770;9.148;2023-03-16T15:22:47;24.80;42.00
62589;DHT22;58504;48.770;9.148;2023-03-16T15:25:21;24.70;42.20
62589;DHT22;58504;48.770;9.148;2023-03-16T15:27:50;24.50;42.40
62589;DHT22;58504;48.770;9.148;2023-03-16T15:30:18;24.50;42.90
62589;DHT22;58504;48.770;9.148;2023-03-16T15:32:46;24.20;43.10
62589;DHT22;58504;48.770;9.148;2023-03-16T15:35:13;24.10;43.60
62589;DHT22;58504;48.770;9.148;2023-03-16T15:37:40;23.90;43.50
62589;DHT22;58504;48.770;9.148;2023-03-16T15:40:17;23.80;43.50
62589;DHT22;58504;48.770;9.148;2023-03-16T15:42:44;23.70;44.00
62589;DHT22;58504;48.770;9.148;2023-03-16T15:45:14;23.60;44.20